Terminal Aerodrome Forecast
Issued by NWS

Home | Current Version | Previous Version | Text Only | Print | Product List | Glossary On
Versions: 1 2 3 4 5 6 7 8 9 10 11 12 13 14 15 16
672
FTUS44 KTSA 022320
TAFRVS
TAF
KRVS 022320Z 0300/0324 34004KT P6SM BKN045
     FM030200 00000KT P6SM FEW150
     FM031600 32005KT P6SM SCT050=

USA.gov is the U.S. government's official web portal to all federal, state and local government web resources and services.